Terminal Aerodrome Forecast
Issued by NWS Twin Cities, MN

Home | Current Version | Previous Version | Graphics & Text | Print | Product List | Glossary On
Versions: 1 2 3 4 5 6 7 8 9 10 11 12 13 14 15
000
FTUS43 KMPX 041121
TAFEAU
TAF
KEAU 041121Z 0412/0512 36008KT P6SM FEW200
     FM050100 04003KT P6SM SCT150
     FM051000 07004KT P6SM OVC050=

USA.gov is the U.S. government's official web portal to all federal, state and local government web resources and services.